createdAt,value
2023-04-16T04:40:09.839Z,11.34
2023-04-16T04:42:37.618Z,11.46
2023-04-16T04:45:05.716Z,11.48
2023-04-16T04:47:34.110Z,11.40
2023-04-16T04:50:00.715Z,11.57
2023-04-16T04:52:28.263Z,11.64
2023-04-16T04:54:54.856Z,11.71
2023-04-16T04:57:21.567Z,11.64
2023-04-16T04:59:51.127Z,11.61
2023-04-16T05:02:17.869Z,11.59
2023-04-16T05:04:44.475Z,11.64
2023-04-16T05:07:10.991Z,11.76
2023-04-16T05:09:37.496Z,11.82
2023-04-16T05:12:04.236Z,11.81
2023-04-16T05:14:30.894Z,11.84
2023-04-16T05:16:57.578Z,11.76
2023-04-16T05:19:24.116Z,11.66
2023-04-16T05:21:50.921Z,11.69
2023-04-16T05:24:17.669Z,11.77
2023-04-16T05:26:44.160Z,11.83
2023-04-16T05:29:10.910Z,11.74
2023-04-16T05:31:37.602Z,11.69
2023-04-16T05:34:04.097Z,11.70
2023-04-16T05:36:30.649Z,11.82
2023-04-16T05:38:57.158Z,11.90
2023-04-16T05:41:23.753Z,12.00
2023-04-16T05:43:50.238Z,12.06
2023-04-16T05:46:16.828Z,11.75
2023-04-16T05:48:43.325Z,12.06
2023-04-16T05:51:09.818Z,12.13
2023-04-16T05:53:36.283Z,12.15
2023-04-16T05:56:02.921Z,12.15
2023-04-16T05:58:29.487Z,12.26
2023-04-16T06:00:56.073Z,12.26
2023-04-16T06:03:22.668Z,12.31
2023-04-16T06:05:49.368Z,12.58
2023-04-16T06:08:15.913Z,12.72
2023-04-16T06:10:42.665Z,12.80
2023-04-16T06:13:09.160Z,12.84
2023-04-16T06:15:35.642Z,12.74
2023-04-16T06:18:02.192Z,12.85
2023-04-16T06:20:28.946Z,12.95
2023-04-16T06:22:56.057Z,12.97
2023-04-16T06:25:22.658Z,13.02
2023-04-16T06:27:49.515Z,12.63
2023-04-16T06:30:16.572Z,12.72
2023-04-16T06:32:43.356Z,12.85
2023-04-16T06:35:10.056Z,12.82
2023-04-16T06:37:36.574Z,12.85
2023-04-16T06:40:03.336Z,12.72
2023-04-16T06:42:30.016Z,12.71
2023-04-16T06:44:56.503Z,12.68
2023-04-16T06:47:23.030Z,12.75
2023-04-16T06:49:49.602Z,12.80
2023-04-16T06:52:16.187Z,12.95
2023-04-16T06:54:42.754Z,12.99
2023-04-16T06:57:09.244Z,13.06
2023-04-16T06:59:36.025Z,12.97
2023-04-16T07:02:02.648Z,13.03
2023-04-16T07:04:29.226Z,12.96
2023-04-16T07:06:55.854Z,12.90
2023-04-16T07:09:22.397Z,13.01
2023-04-16T07:11:48.948Z,13.13
2023-04-16T07:14:15.923Z,13.22
2023-04-16T07:16:42.509Z,13.36
2023-04-16T07:19:09.285Z,13.24
2023-04-16T07:21:36.387Z,13.26
2023-04-16T07:24:03.132Z,13.18
2023-04-16T07:26:29.673Z,13.33
2023-04-16T07:28:56.226Z,13.39
2023-04-16T07:31:22.780Z,13.63
2023-04-16T07:33:49.324Z,13.73
2023-04-16T07:36:15.861Z,13.77
2023-04-16T07:38:42.394Z,13.75
2023-04-16T07:41:08.979Z,13.89
2023-04-16T07:43:35.736Z,14.16
2023-04-16T07:46:02.216Z,14.58
2023-04-16T07:48:28.768Z,14.83
2023-04-16T07:50:55.607Z,14.78
2023-04-16T07:53:22.270Z,14.97
2023-04-16T07:55:48.790Z,15.08
2023-04-16T07:58:15.308Z,15.20
2023-04-16T08:00:42.229Z,15.35
2023-04-16T08:03:08.919Z,15.33
2023-04-16T08:05:38.422Z,15.44
2023-04-16T08:08:05.037Z,15.84
2023-04-16T08:10:31.679Z,15.72
2023-04-16T08:13:00.869Z,15.46
2023-04-16T08:15:27.701Z,15.63
2023-04-16T08:17:54.281Z,15.17
2023-04-16T08:20:20.859Z,13.81
2023-04-16T08:22:48.520Z,14.88
2023-04-16T08:25:15.449Z,15.50
2023-04-16T08:27:41.945Z,15.87
2023-04-16T08:30:08.580Z,15.94
2023-04-16T08:32:35.336Z,15.72
2023-04-16T08:35:02.013Z,15.82
2023-04-16T08:37:28.539Z,15.85
2023-04-16T08:39:55.232Z,15.74
2023-04-16T08:42:30.670Z,15.76
2023-04-16T08:45:08.550Z,15.98
2023-04-16T08:47:37.104Z,16.31
2023-04-16T08:50:05.092Z,16.56
2023-04-16T08:52:32.693Z,16.73
2023-04-16T08:55:06.783Z,16.85
2023-04-16T08:57:40.797Z,16.91
2023-04-16T09:00:08.869Z,16.88
2023-04-16T09:02:36.175Z,16.82
2023-04-16T09:05:04.998Z,16.75
2023-04-16T09:07:33.360Z,16.64
2023-04-16T09:10:01.244Z,16.32
2023-04-16T09:12:27.860Z,16.13
2023-04-16T09:14:56.943Z,15.72
2023-04-16T09:17:23.528Z,15.61
2023-04-16T09:19:50.381Z,15.39
2023-04-16T09:22:17.168Z,14.74
2023-04-16T09:24:43.723Z,14.80
2023-04-16T09:27:12.463Z,14.88
2023-04-16T09:29:40.827Z,14.89
2023-04-16T09:32:09.419Z,14.90
2023-04-16T09:34:54.628Z,14.77
2023-04-16T09:37:41.553Z,14.71
2023-04-16T09:40:08.648Z,15.07
2023-04-16T09:42:39.759Z,14.82
2023-04-16T09:45:06.925Z,14.33
2023-04-16T09:47:41.729Z,14.94
2023-04-16T09:50:12.455Z,16.21
2023-04-16T09:52:39.702Z,17.07
2023-04-16T09:55:06.690Z,17.39
2023-04-16T09:57:33.300Z,17.39
2023-04-16T10:00:07.718Z,17.28
2023-04-16T10:02:35.260Z,17.22
2023-04-16T10:05:03.176Z,17.02
2023-04-16T10:07:34.020Z,16.89
2023-04-16T10:10:00.649Z,16.83
2023-04-16T10:12:28.774Z,16.51
2023-04-16T10:14:55.524Z,16.15
2023-04-16T10:17:23.972Z,15.79
2023-04-16T10:19:51.295Z,15.93
2023-04-16T10:22:17.898Z,16.13
2023-04-16T10:24:46.724Z,16.50
2023-04-16T10:27:13.372Z,17.20
2023-04-16T10:29:40.468Z,17.78
2023-04-16T10:32:07.919Z,18.31
2023-04-16T10:34:35.128Z,18.84
2023-04-16T10:37:01.664Z,18.83
2023-04-16T10:39:29.425Z,19.24
2023-04-16T10:42:10.147Z,18.96
2023-04-16T10:44:36.726Z,18.68
2023-04-16T10:47:09.491Z,18.02
2023-04-16T10:49:36.161Z,17.09
2023-04-16T10:52:08.533Z,16.97
2023-04-16T10:54:36.117Z,17.11
2023-04-16T10:57:19.983Z,17.41
2023-04-16T10:59:48.784Z,17.57
2023-04-16T11:02:17.933Z,17.51
2023-04-16T11:04:46.463Z,17.59
2023-04-16T11:07:19.325Z,17.61
2023-04-16T11:09:59.874Z,17.56
2023-04-16T11:12:33.046Z,17.25
2023-04-16T11:15:09.130Z,16.83
2023-04-16T11:17:40.115Z,16.70
2023-04-16T11:20:23.521Z,15.87
2023-04-16T11:22:54.589Z,16.08
2023-04-16T11:25:23.190Z,15.98
2023-04-16T11:27:51.186Z,15.82
2023-04-16T11:30:18.851Z,15.58
2023-04-16T11:32:45.991Z,15.80
2023-04-16T11:35:17.424Z,16.46
2023-04-16T11:37:44.423Z,16.68
2023-04-16T11:40:12.446Z,17.00
2023-04-16T11:42:41.090Z,16.69
2023-04-16T11:45:09.678Z,17.17
2023-04-16T11:47:50.204Z,18.03
2023-04-16T11:50:20.454Z,18.30
2023-04-16T11:52:47.741Z,19.84
2023-04-16T11:55:14.603Z,19.59
2023-04-16T11:57:41.304Z,19.48
2023-04-16T12:00:13.983Z,19.52
2023-04-16T12:02:51.575Z,19.20
2023-04-16T12:05:32.432Z,18.99
2023-04-16T12:08:00.713Z,18.81
2023-04-16T12:10:27.654Z,18.78
2023-04-16T12:12:54.468Z,18.43
2023-04-16T12:15:21.214Z,18.25
2023-04-16T12:17:48.714Z,18.36
2023-04-16T12:20:15.746Z,18.44
2023-04-16T12:22:49.730Z,18.13
2023-04-16T12:25:17.869Z,17.49
2023-04-16T12:27:55.855Z,17.93
2023-04-16T12:30:23.838Z,18.98
2023-04-16T12:32:53.243Z,19.95
2023-04-16T12:35:34.238Z,20.25
2023-04-16T12:38:01.433Z,19.86
2023-04-16T12:40:28.208Z,18.67
2023-04-16T12:42:55.032Z,18.80
2023-04-16T12:45:22.132Z,18.42
2023-04-16T12:47:50.372Z,19.16
2023-04-16T12:50:17.131Z,19.08
2023-04-16T12:52:43.826Z,19.25
2023-04-16T12:55:10.600Z,19.15
2023-04-16T12:57:37.160Z,18.63
2023-04-16T13:00:06.410Z,19.02
2023-04-16T13:02:33.124Z,19.37
2023-04-16T13:04:59.867Z,20.53
2023-04-16T13:07:26.801Z,21.97
2023-04-16T13:09:53.615Z,25.21
2023-04-16T13:12:20.455Z,26.80
2023-04-16T13:14:47.024Z,25.93
2023-04-16T13:17:13.553Z,26.40
2023-04-16T13:19:40.235Z,36.77
2023-04-16T13:22:06.889Z,37.94
2023-04-16T13:24:33.469Z,39.90
2023-04-16T13:27:00.053Z,36.38
2023-04-16T13:29:27.016Z,29.20
2023-04-16T13:31:53.814Z,25.55
2023-04-16T13:34:20.566Z,22.97
2023-04-16T13:36:47.116Z,22.41
2023-04-16T13:39:14.173Z,29.87
2023-04-16T13:41:40.739Z,30.42
2023-04-16T13:44:07.421Z,27.74
2023-04-16T13:46:34.234Z,31.54
2023-04-16T13:49:01.248Z,26.51
2023-04-16T13:51:27.875Z,23.61
2023-04-16T13:53:55.954Z,21.86
2023-04-16T13:56:22.588Z,20.61
2023-04-16T13:58:49.418Z,20.00
2023-04-16T14:01:17.171Z,19.50
2023-04-16T14:03:43.916Z,19.29
2023-04-16T14:06:10.700Z,18.66
2023-04-16T14:08:38.199Z,19.08
2023-04-16T14:11:06.334Z,19.65
2023-04-16T14:13:32.996Z,19.75
2023-04-16T14:15:59.686Z,19.32
2023-04-16T14:18:26.235Z,18.89
2023-04-16T14:20:52.758Z,18.41
2023-04-16T14:23:19.361Z,18.40
2023-04-16T14:25:45.911Z,18.21
2023-04-16T14:28:14.343Z,18.48
2023-04-16T14:30:42.157Z,18.84
2023-04-16T14:33:08.705Z,18.86
2023-04-16T14:35:36.017Z,19.50
2023-04-16T14:38:02.920Z,20.08
2023-04-16T14:40:29.525Z,20.54
2023-04-16T14:42:56.020Z,20.66
2023-04-16T14:45:26.249Z,20.27
2023-04-16T14:47:53.795Z,20.04
2023-04-16T14:50:20.582Z,19.55
2023-04-16T14:52:47.149Z,18.87
2023-04-16T14:55:13.700Z,20.17
2023-04-16T14:57:41.481Z,20.75
2023-04-16T15:00:10.430Z,20.87
2023-04-16T15:02:37.480Z,21.22
2023-04-16T15:05:04.550Z,21.71
2023-04-16T15:07:31.682Z,21.83
2023-04-16T15:09:58.219Z,22.55
2023-04-16T15:12:24.953Z,22.53
2023-04-16T15:14:51.455Z,23.09
2023-04-16T15:17:18.144Z,22.91
2023-04-16T15:19:44.724Z,22.99
2023-04-16T15:22:11.383Z,21.40
2023-04-16T15:24:37.874Z,20.71
2023-04-16T15:27:07.166Z,20.09
2023-04-16T15:29:34.174Z,19.68
2023-04-16T15:32:00.818Z,18.83
2023-04-16T15:34:27.748Z,18.35
2023-04-16T15:36:54.411Z,18.28
2023-04-16T15:39:21.064Z,18.56
2023-04-16T15:42:00.688Z,18.94
2023-04-16T15:44:30.221Z,18.31
2023-04-16T15:46:56.760Z,17.99
2023-04-16T15:49:24.707Z,17.69
2023-04-16T15:51:51.956Z,17.02
2023-04-16T15:54:18.887Z,17.27
2023-04-16T15:56:46.584Z,17.55
2023-04-16T15:59:13.567Z,17.52
2023-04-16T16:01:40.682Z,17.42
2023-04-16T16:04:08.201Z,17.20
2023-04-16T16:06:35.236Z,16.90
2023-04-16T16:09:01.859Z,16.83
2023-04-16T16:11:28.509Z,16.18
2023-04-16T16:13:55.109Z,16.03
2023-04-16T16:16:21.928Z,15.72
2023-04-16T16:18:48.710Z,15.66
2023-04-16T16:21:15.347Z,15.43
2023-04-16T16:23:42.030Z,15.44
2023-04-16T16:26:09.162Z,15.45
2023-04-16T16:28:38.779Z,15.46
2023-04-16T16:31:06.860Z,15.19
2023-04-16T16:33:33.456Z,15.35
2023-04-16T16:36:00.074Z,15.55
2023-04-16T16:38:27.068Z,15.22
2023-04-16T16:40:53.610Z,15.55
2023-04-16T16:43:20.362Z,15.32
2023-04-16T16:45:47.115Z,15.69
2023-04-16T16:48:13.754Z,15.53
2023-04-16T16:50:40.320Z,15.35
2023-04-16T16:53:06.798Z,15.67
2023-04-16T16:55:35.026Z,15.32
2023-04-16T16:58:01.607Z,14.34
2023-04-16T17:00:28.160Z,14.24
2023-04-16T17:02:54.824Z,14.95
2023-04-16T17:05:40.570Z,14.95
2023-04-16T17:08:30.826Z,15.13
2023-04-16T17:11:17.924Z,15.31
2023-04-16T17:14:04.817Z,15.13
2023-04-16T17:16:51.677Z,15.25
2023-04-16T17:19:38.524Z,14.81
2023-04-16T17:22:25.362Z,14.36
2023-04-16T17:25:12.187Z,14.37
2023-04-16T17:27:59.425Z,14.68
2023-04-16T17:30:51.052Z,14.22
2023-04-16T17:33:39.020Z,13.82
2023-04-16T17:36:27.058Z,13.82
2023-04-16T17:39:14.563Z,13.92
2023-04-16T17:42:03.030Z,13.85
2023-04-16T17:44:49.988Z,13.91
2023-04-16T17:47:37.420Z,14.07
2023-04-16T17:50:26.789Z,13.95
2023-04-16T17:53:13.772Z,13.76
2023-04-16T17:56:00.777Z,13.34
2023-04-16T17:58:47.697Z,13.47
2023-04-16T18:01:34.701Z,13.55
2023-04-16T18:04:21.717Z,13.30
2023-04-16T18:07:08.775Z,13.44
2023-04-16T18:09:55.693Z,13.64
2023-04-16T18:12:42.555Z,13.64
2023-04-16T18:15:29.388Z,13.48
2023-04-16T18:18:16.293Z,13.84
2023-04-16T18:21:03.154Z,13.58
2023-04-16T18:23:49.987Z,13.55
2023-04-16T18:26:37.604Z,13.08
2023-04-16T18:29:25.505Z,13.27
2023-04-16T18:32:12.631Z,13.27
2023-04-16T18:34:59.648Z,13.33
2023-04-16T18:37:46.686Z,13.53
2023-04-16T18:40:37.547Z,13.44
2023-04-16T18:43:24.616Z,13.53
2023-04-16T18:46:12.264Z,13.06
2023-04-16T18:48:59.391Z,13.25
2023-04-16T18:51:46.202Z,13.38
2023-04-16T18:54:33.087Z,13.20
2023-04-16T18:57:19.969Z,13.15
2023-04-16T19:00:13.814Z,13.11
2023-04-16T19:03:00.824Z,12.76
2023-04-16T19:05:47.738Z,13.10
2023-04-16T19:08:34.585Z,13.33
2023-04-16T19:11:21.460Z,12.77
2023-04-16T19:14:08.408Z,12.77
2023-04-16T19:16:55.574Z,13.04
2023-04-16T19:19:42.450Z,13.14
2023-04-16T19:22:29.289Z,12.83
2023-04-16T19:25:16.284Z,12.99
2023-04-16T19:28:03.822Z,13.20
2023-04-16T19:30:54.312Z,12.77
2023-04-16T19:33:41.592Z,12.97
2023-04-16T19:36:28.446Z,13.15
2023-04-16T19:39:15.316Z,12.87
2023-04-16T19:42:02.160Z,12.97
2023-04-16T19:44:49.100Z,12.86
2023-04-16T19:47:36.073Z,13.12
2023-04-16T19:50:23.836Z,12.98
2023-04-16T19:53:12.007Z,13.03
2023-04-16T19:55:58.815Z,12.84
